18.9°F
Current conditions from King Hill
Updated every 5 minutes
 
  Friday November 28, 2014

Station Historical Data
Daily Summary for October 17, 2011 Units:  Metric    English   Both
« Previous Day
Next Day »
Daily Weekly Monthly Yearly Custom
  High: Low: Average:
Temperature: 12.3 °C 4.5 °C 7.9 °C
Dew Point: 7.2 °C 2.8 °C 4.6 °C
Humidity: 92% 56% 81%
Wind Speed: 17.7km/h 1.6km/h 6km/h
Wind Gust: 37km/h - -
Wind- - SW
Pressure: 1003.6 hPa 997.9 hPa -
Precipitation: 5.8 mm    
Historical Graphs
 
 
Tabular Data for October 17, 2011
Time Temperature Dew Point Pressure Wind Wind Speed Wind Gust Humidity Daily Rainfall
00:00 9.5 °C 6.8 °C 998.2 hPa SW 4.8 km/h 14.5 km/h 83% 1.5 mm
00:05 9.5 °C 6.8 °C 998.2 hPa SW 8 km/h 20.9 km/h 83% 0 mm
00:10 9.4 °C 6.9 °C 998.2 hPa SW 6.4 km/h 20.9 km/h 84% 0 mm
00:15 9.4 °C 6.9 °C 998.2 hPa SW 8 km/h 19.3 km/h 84% 0 mm
00:20 9.4 °C 6.9 °C 998.2 hPa SW 8 km/h 19.3 km/h 84% 0 mm
00:25 9.4 °C 6.9 °C 998.2 hPa SSW 4.8 km/h 17.7 km/h 84% 0 mm
00:30 9.4 °C 7.1 °C 997.9 hPa SW 6.4 km/h 19.3 km/h 85% 0 mm
00:35 9.4 °C 7.1 °C 997.9 hPa SW 12.9 km/h 20.9 km/h 85% 0 mm
00:40 9.5 °C 7.1 °C 997.9 hPa SW 6.4 km/h 20.9 km/h 85% 0 mm
00:45 9.5 °C 7.1 °C 997.9 hPa SW 11.3 km/h 22.5 km/h 85% 0 mm
00:50 9.6 °C 7.2 °C 997.9 hPa SW 11.3 km/h 22.5 km/h 85% 0 mm
00:55 9.6 °C 7.2 °C 997.9 hPa SW 9.7 km/h 20.9 km/h 85% 0 mm
01:00 9.6 °C 7.2 °C 998.5 hPa West 8 km/h 19.3 km/h 85% 0 mm
01:05 8.8 °C 5.5 °C 999.2 hPa NW 14.5 km/h 37 km/h 80% 0.3 mm
01:10 7.4 °C 4.3 °C 999.2 hPa NW 11.3 km/h 37 km/h 81% 1.5 mm
01:15 6.6 °C 3.9 °C 998.9 hPa WNW 3.2 km/h 19.3 km/h 83% 3 mm
01:20 6.2 °C 4 °C 998.9 hPa West 3.2 km/h 17.7 km/h 86% 4.1 mm
01:25 6.2 °C 4.2 °C 998.9 hPa West 3.2 km/h 11.3 km/h 87% 4.1 mm
01:30 6.3 °C 4.4 °C 998.9 hPa WSW 4.8 km/h 12.9 km/h 88% 4.3 mm
01:35 6.3 °C 4.6 °C 998.9 hPa West 3.2 km/h 12.9 km/h 89% 4.3 mm
01:40 6.4 °C 4.9 °C 998.9 hPa WSW 3.2 km/h 11.3 km/h 90% 4.3 mm
01:45 6.4 °C 4.9 °C 998.9 hPa West 1.6 km/h 11.3 km/h 90% 4.3 mm
01:50 6.6 °C 5.1 °C 998.9 hPa West 6.4 km/h 17.7 km/h 90% 4.3 mm
01:55 6.7 °C 5.2 °C 998.9 hPa WSW 1.6 km/h 17.7 km/h 90% 4.3 mm
02:00 6.8 °C 5.3 °C 998.5 hPa West 3.2 km/h 12.9 km/h 90% 4.3 mm
02:05 6.8 °C 5.3 °C 998.5 hPa SW 1.6 km/h 12.9 km/h 90% 4.3 mm
02:10 6.9 °C 5.4 °C 998.9 hPa SW 4.8 km/h 12.9 km/h 90% 4.3 mm
02:15 7 °C 5.5 °C 999.2 hPa SW 1.6 km/h 12.9 km/h 90% 4.3 mm
02:20 6.9 °C 5.4 °C 998.9 hPa SW 4.8 km/h 8 km/h 90% 4.3 mm
02:25 6.9 °C 5.4 °C 998.9 hPa SW 1.6 km/h 8 km/h 90% 4.3 mm
02:30 7 °C 5.5 °C 999.2 hPa WSW 3.2 km/h 14.5 km/h 90% 4.3 mm
02:35 7.1 °C 5.5 °C 998.9 hPa SW 3.2 km/h 14.5 km/h 90% 4.3 mm
02:40 7 °C 5.5 °C 998.9 hPa Calm   9.7 km/h 90% 4.3 mm
02:45 6.9 °C 5.4 °C 998.9 hPa SSW 3.2 km/h 9.7 km/h 90% 4.3 mm
02:50 6.8 °C 5.3 °C 998.9 hPa SSW 3.2 km/h 9.7 km/h 90% 4.3 mm
02:55 6.7 °C 5.2 °C 998.9 hPa South 3.2 km/h 9.7 km/h 90% 4.3 mm
03:00 6.6 °C 4.9 °C 998.5 hPa SSW 3.2 km/h 9.7 km/h 89% 4.3 mm
03:05 6.3 °C 4.7 °C 998.5 hPa SSW 1.6 km/h 9.7 km/h 89% 4.3 mm
03:10 6.2 °C 4.5 °C 998.9 hPa SW 1.6 km/h 11.3 km/h 89% 4.3 mm
03:15 5.9 °C 4.2 °C 998.9 hPa SSW 1.6 km/h 11.3 km/h 89% 4.3 mm
03:20 5.8 °C 4.3 °C 998.9 hPa SSW 3.2 km/h 9.7 km/h 90% 4.3 mm
03:25 5.8 °C 4.3 °C 998.9 hPa SW 1.6 km/h 9.7 km/h 90% 4.3 mm
03:30 5.7 °C 4.2 °C 998.9 hPa SW 1.6 km/h 9.7 km/h 90% 4.3 mm
03:35 5.6 °C 4.1 °C 998.9 hPa Calm   8 km/h 90% 4.3 mm
03:40 5.4 °C 3.9 °C 998.9 hPa Calm   8 km/h 90% 4.3 mm
03:45 5.3 °C 3.8 °C 998.9 hPa SW 1.6 km/h 6.4 km/h 90% 4.3 mm
03:50 5.3 °C 3.8 °C 998.9 hPa SW 3.2 km/h 8 km/h 90% 4.3 mm
03:55 5.3 °C 3.8 °C 998.9 hPa Calm   8 km/h 90% 4.3 mm
04:00 5.2 °C 3.7 °C 998.9 hPa Calm   4.8 km/h 90% 4.3 mm
04:05 5.2 °C 3.7 °C 998.9 hPa SW 1.6 km/h 6.4 km/h 90% 4.3 mm
04:10 5.2 °C 3.7 °C 998.9 hPa Calm   6.4 km/h 90% 4.3 mm
04:15 5.4 °C 3.9 °C 998.9 hPa SW 1.6 km/h 9.7 km/h 90% 4.3 mm
04:20 5.6 °C 4.2 °C 998.9 hPa SSW 3.2 km/h 11.3 km/h 91% 4.3 mm
04:30 5.5 °C 4.2 °C 998.9 hPa Calm   1.6 km/h 91% 4.3 mm
04:35 5.3 °C 3.8 °C 999.2 hPa Calm   1.6 km/h 90% 4.3 mm
04:40 5.1 °C 3.6 °C 998.9 hPa Calm   4.8 km/h 90% 4.3 mm
04:45 4.9 °C 3.4 °C 999.2 hPa SSW 1.6 km/h 8 km/h 90% 4.3 mm
04:50 4.8 °C 3.5 °C 999.2 hPa Calm   8 km/h 91% 4.3 mm
04:55 4.7 °C 3.2 °C 999.2 hPa Calm   6.4 km/h 90% 4.3 mm
05:00 4.5 °C 3 °C 999.2 hPa SW 6.4 km/h 12.9 km/h 90% 4.3 mm
05:05 4.8 °C 3.5 °C 999.2 hPa SW 3.2 km/h 12.9 km/h 91% 4.3 mm
05:10 5 °C 3.7 °C 999.2 hPa SSW 1.6 km/h 12.9 km/h 91% 4.3 mm
05:15 4.9 °C 3.6 °C 999.2 hPa SSW 3.2 km/h 9.7 km/h 91% 4.3 mm
05:20 4.9 °C 3.6 °C 999.2 hPa SSW 1.6 km/h 11.3 km/h 91% 4.3 mm
05:25 4.9 °C 3.8 °C 999.2 hPa SW 4.8 km/h 11.3 km/h 92% 4.3 mm
05:30 5 °C 3.8 °C 999.5 hPa SW 6.4 km/h 11.3 km/h 92% 4.3 mm
05:35 5.1 °C 3.9 °C 999.5 hPa WSW 1.6 km/h 9.7 km/h 92% 4.3 mm
05:40 5.1 °C 3.9 °C 999.5 hPa Calm   9.7 km/h 92% 4.3 mm
05:45 5.2 °C 4 °C 999.5 hPa SW 3.2 km/h 11.3 km/h 92% 4.3 mm
05:50 5.2 °C 4.1 °C 999.5 hPa SW 8 km/h 14.5 km/h 92% 4.3 mm
05:55 5.3 °C 4.2 °C 999.5 hPa SW 4.8 km/h 14.5 km/h 92% 4.3 mm
06:00 5.4 °C 4.1 °C 999.5 hPa SW 6.4 km/h 14.5 km/h 91% 4.3 mm
06:05 5.4 °C 4.1 °C 999.9 hPa SW 8 km/h 16.1 km/h 91% 4.3 mm
06:10 5.3 °C 4 °C 999.9 hPa SW 4.8 km/h 16.1 km/h 91% 4.3 mm
06:15 5.4 °C 4.1 °C 999.9 hPa SW 4.8 km/h 16.1 km/h 91% 4.3 mm
06:20 5.4 °C 3.9 °C 999.9 hPa SW 4.8 km/h 16.1 km/h 90% 4.3 mm
06:25 5.4 °C 3.9 °C 999.9 hPa SW 3.2 km/h 12.9 km/h 90% 4.3 mm
06:30 5.4 °C 3.9 °C 999.9 hPa SW 3.2 km/h 11.3 km/h 90% 4.3 mm
06:35 5.4 °C 3.9 °C 999.9 hPa WSW 1.6 km/h 9.7 km/h 90% 4.3 mm
06:40 5.4 °C 3.9 °C 999.9 hPa SW 3.2 km/h 9.7 km/h 90% 4.3 mm
06:45 5.4 °C 3.7 °C 999.9 hPa WSW 1.6 km/h 9.7 km/h 89% 4.6 mm
06:50 5.4 °C 3.7 °C 999.9 hPa SW 4.8 km/h 11.3 km/h 89% 4.6 mm
06:55 5.4 °C 3.8 °C 999.9 hPa Calm   11.3 km/h 89% 4.6 mm
07:00 5.4 °C 3.6 °C 1000.2 hPa SW 4.8 km/h 11.3 km/h 88% 4.6 mm
07:05 5.5 °C 3.7 °C 1000.2 hPa SW 4.8 km/h 11.3 km/h 88% 4.6 mm
07:10 5.5 °C 3.7 °C 1000.2 hPa SW 3.2 km/h 11.3 km/h 88% 4.6 mm
07:15 5.6 °C 3.7 °C 1000.2 hPa SW 3.2 km/h 11.3 km/h 88% 4.6 mm
07:20 5.6 °C 3.6 °C 999.9 hPa SW 3.2 km/h 11.3 km/h 87% 4.6 mm
07:25 5.7 °C 3.7 °C 1000.2 hPa WSW 4.8 km/h 12.9 km/h 87% 4.6 mm
07:30 5.7 °C 3.5 °C 1000.2 hPa SW 4.8 km/h 12.9 km/h 86% 4.6 mm
07:35 5.6 °C 3.4 °C 1000.2 hPa SW 3.2 km/h 11.3 km/h 86% 4.6 mm
07:40 5.4 °C 3.3 °C 1000.2 hPa SW 6.4 km/h 12.9 km/h 86% 4.6 mm
07:45 5.4 °C 3.4 °C 1000.6 hPa SW 4.8 km/h 12.9 km/h 87% 4.6 mm
07:50 5.4 °C 3.4 °C 1000.2 hPa SW 6.4 km/h 14.5 km/h 87% 4.6 mm
07:55 5.4 °C 3.4 °C 1000.6 hPa SW 6.4 km/h 14.5 km/h 87% 4.6 mm
08:00 5.4 °C 3.4 °C 1000.6 hPa SW 4.8 km/h 14.5 km/h 87% 4.6 mm
08:05 5.4 °C 3.4 °C 1000.6 hPa SW 6.4 km/h 12.9 km/h 87% 4.6 mm
08:10 5.5 °C 3.5 °C 1000.6 hPa SSW 6.4 km/h 12.9 km/h 87% 4.6 mm
08:15 5.6 °C 3.6 °C 1000.6 hPa SSW 3.2 km/h 11.3 km/h 87% 4.6 mm
08:20 5.6 °C 3.6 °C 1000.6 hPa SSW 4.8 km/h 11.3 km/h 87% 4.6 mm
08:25 5.7 °C 3.7 °C 1000.9 hPa SW 1.6 km/h 12.9 km/h 87% 4.6 mm
08:30 5.7 °C 3.7 °C 1000.9 hPa South 4.8 km/h 12.9 km/h 87% 4.6 mm
08:35 5.8 °C 3.8 °C 1000.9 hPa SSW 6.4 km/h 12.9 km/h 87% 4.6 mm
08:39 5.8 °C 4 °C 1000.9 hPa SSW 4.8 km/h 12.9 km/h 88% 4.6 mm
08:45 5.9 °C 4.1 °C 1000.9 hPa SSW 4.8 km/h 14.5 km/h 88% 4.6 mm
08:50 6 °C 4.2 °C 1000.9 hPa South 4.8 km/h 14.5 km/h 88% 4.6 mm
08:55 6.2 °C 4.3 °C 1000.9 hPa SW 3.2 km/h 16.1 km/h 88% 4.6 mm
09:00 6.3 °C 4.5 °C 1000.9 hPa SW 3.2 km/h 19.3 km/h 88% 4.6 mm
09:05 6.7 °C 4.8 °C 1000.9 hPa SSW 6.4 km/h 19.3 km/h 88% 4.6 mm
09:10 7.2 °C 5.3 °C 1000.9 hPa SSW 8 km/h 22.5 km/h 88% 4.6 mm
09:15 7.6 °C 5.4 °C 1000.9 hPa SW 6.4 km/h 22.5 km/h 86% 4.6 mm
09:20 8.1 °C 5.5 °C 1000.9 hPa SW 3.2 km/h 20.9 km/h 84% 4.6 mm
09:25 8.3 °C 5.4 °C 1000.9 hPa SW 6.4 km/h 19.3 km/h 82% 4.6 mm
09:30 8.7 °C 5.8 °C 1000.9 hPa SW 4.8 km/h 22.5 km/h 82% 4.6 mm
09:35 8.9 °C 5.5 °C 1000.9 hPa WSW 9.7 km/h 22.5 km/h 79% 4.6 mm
09:40 9.1 °C 5.2 °C 1000.9 hPa SW 11.3 km/h 20.9 km/h 77% 4.6 mm
09:45 9.2 °C 5.6 °C 1000.6 hPa SSW 9.7 km/h 22.5 km/h 78% 4.6 mm
09:50 9.3 °C 5.7 °C 1000.9 hPa SW 9.7 km/h 27.4 km/h 78% 4.6 mm
09:55 9.1 °C 5.4 °C 1000.9 hPa SSW 6.4 km/h 27.4 km/h 78% 4.6 mm
10:00 8.9 °C 5.3 °C 1000.6 hPa SSW 6.4 km/h 19.3 km/h 78% 4.6 mm
10:05 8.9 °C 5.3 °C 1000.6 hPa SSW 14.5 km/h 25.7 km/h 78% 4.6 mm
10:10 9.2 °C 5.6 °C 1000.9 hPa SSW 6.4 km/h 25.7 km/h 78% 4.6 mm
10:15 9.4 °C 5.4 °C 1000.6 hPa SW 11.3 km/h 22.5 km/h 76% 4.6 mm
10:20 9.4 °C 5.4 °C 1000.6 hPa SW 9.7 km/h 22.5 km/h 76% 4.6 mm
10:25 9.6 °C 5.3 °C 1000.6 hPa SSW 12.9 km/h 22.5 km/h 75% 4.6 mm
10:30 9.8 °C 5.6 °C 1000.6 hPa SSW 11.3 km/h 24.1 km/h 75% 4.6 mm
10:35 10.2 °C 5.9 °C 1000.6 hPa SSW 8 km/h 24.1 km/h 75% 4.6 mm
10:40 10.6 °C 6 °C 1000.6 hPa SSW 12.9 km/h 25.7 km/h 73% 4.6 mm
10:45 10.7 °C 5.9 °C 1000.6 hPa SSW 8 km/h 25.7 km/h 72% 4.6 mm
10:50 11 °C 5.6 °C 1000.6 hPa SW 11.3 km/h 20.9 km/h 69% 4.6 mm
10:55 11.2 °C 5.5 °C 1000.6 hPa WSW 9.7 km/h 22.5 km/h 68% 4.6 mm
11:00 11.4 °C 5.3 °C 1000.6 hPa SW 9.7 km/h 22.5 km/h 66% 4.6 mm
11:05 11.6 °C 4.8 °C 1000.2 hPa WSW 14.5 km/h 29 km/h 63% 4.6 mm
11:09 11.8 °C 4.7 °C 1000.6 hPa WSW 12.9 km/h 29 km/h 62% 4.6 mm
11:15 11.8 °C 4.3 °C 1000.2 hPa SSW 14.5 km/h 35.4 km/h 60% 4.6 mm
11:20 12.1 °C 4.8 °C 1000.2 hPa SW 11.3 km/h 35.4 km/h 61% 4.6 mm
11:25 12.2 °C 4.9 °C 1000.2 hPa WSW 9.7 km/h 22.5 km/h 61% 4.6 mm
11:30 12.3 °C 4.8 °C 1000.2 hPa SW 9.7 km/h 22.5 km/h 60% 4.6 mm
11:40 12.2 °C 3.9 °C 999.9 hPa WSW 17.7 km/h 30.6 km/h 57% 4.6 mm
11:45 12.1 °C 3.6 °C 999.9 hPa SW 14.5 km/h 30.6 km/h 56% 4.6 mm
11:50 12.3 °C 4.3 °C 999.9 hPa SW 12.9 km/h 30.6 km/h 58% 4.6 mm
11:55 11.8 °C 3.6 °C 999.9 hPa SW 11.3 km/h 29 km/h 57% 4.6 mm
12:00 11.4 °C 3.7 °C 999.9 hPa WSW 4.8 km/h 30.6 km/h 59% 4.6 mm
12:04 11.6 °C 4.1 °C 999.9 hPa SW 11.3 km/h 30.6 km/h 60% 4.6 mm
12:10 11.5 °C 4 °C 999.9 hPa SW 9.7 km/h 22.5 km/h 60% 4.6 mm
12:15 11.2 °C 3.7 °C 999.9 hPa SW 11.3 km/h 30.6 km/h 60% 4.6 mm
12:20 11 °C 4.2 °C 999.9 hPa SW 4.8 km/h 30.6 km/h 63% 4.6 mm
12:24 10.9 °C 3.9 °C 999.9 hPa WSW 9.7 km/h 27.4 km/h 62% 4.6 mm
12:30 10.8 °C 4.1 °C 999.9 hPa SW 4.8 km/h 22.5 km/h 63% 4.6 mm
12:35 10.7 °C 4.1 °C 999.9 hPa SW 14.5 km/h 22.5 km/h 64% 4.6 mm
12:39 10.5 °C 4.2 °C 999.9 hPa WSW 9.7 km/h 22.5 km/h 65% 4.6 mm
12:45 10.6 °C 4.1 °C 999.9 hPa WSW 12.9 km/h 24.1 km/h 64% 4.6 mm
12:50 10.8 °C 4.2 °C 999.9 hPa SW 12.9 km/h 24.1 km/h 64% 4.6 mm
12:55 10.8 °C 4.5 °C 999.5 hPa WSW 6.4 km/h 17.7 km/h 65% 4.6 mm
13:00 10.8 °C 4.3 °C 999.5 hPa SW 4.8 km/h 22.5 km/h 64% 4.6 mm
13:05 10.8 °C 4.3 °C 999.5 hPa SW 8 km/h 22.5 km/h 64% 4.6 mm
13:10 10.7 °C 4.4 °C 999.5 hPa WSW 8 km/h 16.1 km/h 65% 4.6 mm
13:15 10.6 °C 4.3 °C 999.5 hPa WSW 11.3 km/h 22.5 km/h 65% 4.6 mm
13:20 10.5 °C 4.4 °C 999.5 hPa SW 8 km/h 22.5 km/h 66% 4.6 mm
13:25 10.3 °C 4.3 °C 999.5 hPa SW 8 km/h 22.5 km/h 66% 4.6 mm
13:35 10.3 °C 3.1 °C 999.5 hPa SW 11.3 km/h 20.9 km/h 61% 4.6 mm
13:40 10.3 °C 3.6 °C 999.5 hPa SW 9.7 km/h 19.3 km/h 63% 4.6 mm
13:45 10.3 °C 4.1 °C 999.5 hPa SW 8 km/h 19.3 km/h 65% 4.6 mm
13:49 10.3 °C 4.2 °C 999.5 hPa SW 8 km/h 19.3 km/h 66% 4.6 mm
13:55 10.2 °C 4.4 °C 999.9 hPa SW 8 km/h 16.1 km/h 67% 4.6 mm
13:59 10.2 °C 4.5 °C 999.9 hPa WSW 6.4 km/h 14.5 km/h 68% 4.6 mm
14:05 10.2 °C 3.9 °C 999.9 hPa West 8 km/h 16.1 km/h 65% 4.6 mm
14:10 9.9 °C 3.9 °C 1000.2 hPa West 9.7 km/h 19.3 km/h 66% 4.6 mm
14:14 9.7 °C 3.6 °C 999.9 hPa West 8 km/h 24.1 km/h 66% 4.6 mm
14:20 9.4 °C 3.6 °C 999.9 hPa WNW 8 km/h 24.1 km/h 67% 4.6 mm
14:25 9.3 °C 3.7 °C 999.9 hPa WNW 9.7 km/h 22.5 km/h 68% 4.6 mm
14:30 9.2 °C 3.6 °C 999.9 hPa West 6.4 km/h 22.5 km/h 68% 4.6 mm
14:35 9.1 °C 3.7 °C 999.9 hPa WSW 4.8 km/h 14.5 km/h 69% 4.6 mm
14:39 9 °C 3.6 °C 999.9 hPa WSW 8 km/h 16.1 km/h 69% 4.6 mm
14:45 9 °C 3.6 °C 999.9 hPa SW 4.8 km/h 16.1 km/h 69% 4.6 mm
14:50 9 °C 3.8 °C 999.9 hPa Calm   12.9 km/h 70% 4.6 mm
14:54 9 °C 3.8 °C 999.9 hPa SW 1.6 km/h 11.3 km/h 70% 4.6 mm
14:59 9.1 °C 3.7 °C 999.9 hPa WSW 1.6 km/h 11.3 km/h 69% 4.6 mm
15:05 9.1 °C 3.9 °C 999.9 hPa WSW 4.8 km/h 11.3 km/h 70% 4.6 mm
15:10 9.1 °C 3.9 °C 999.9 hPa SW 1.6 km/h 11.3 km/h 70% 4.6 mm
15:14 9.2 °C 4 °C 999.9 hPa WSW 3.2 km/h 11.3 km/h 70% 4.6 mm
15:19 9.2 °C 3.8 °C 999.9 hPa WSW 4.8 km/h 16.1 km/h 69% 4.6 mm
15:25 9.3 °C 3.7 °C 1000.2 hPa SW 1.6 km/h 16.1 km/h 68% 4.6 mm
15:29 9.4 °C 3.8 °C 1000.2 hPa Calm   14.5 km/h 68% 4.6 mm
15:40 9.4 °C 3.6 °C 1000.2 hPa SW 1.6 km/h 8 km/h 67% 4.6 mm
15:45 9.4 °C 3.6 °C 1000.2 hPa SW 1.6 km/h 9.7 km/h 67% 4.6 mm
15:50 9.4 °C 4 °C 1000.2 hPa Calm   9.7 km/h 69% 4.6 mm
15:55 9.3 °C 3.7 °C 1000.6 hPa Calm   6.4 km/h 68% 4.6 mm
15:59 9.3 °C 3.7 °C 1000.6 hPa West 6.4 km/h 16.1 km/h 68% 4.6 mm
16:04 9.6 °C 3.3 °C 1000.6 hPa WSW 14.5 km/h 29 km/h 65% 4.6 mm
16:10 9.7 °C 3.4 °C 1000.6 hPa West 9.7 km/h 29 km/h 65% 4.6 mm
16:15 9.6 °C 3.3 °C 1000.6 hPa West 8 km/h 25.7 km/h 65% 4.6 mm
16:19 9.7 °C 2.9 °C 1000.6 hPa West 11.3 km/h 27.4 km/h 63% 4.6 mm
16:25 9.7 °C 2.9 °C 1000.6 hPa West 8 km/h 27.4 km/h 63% 4.6 mm
16:30 9.6 °C 2.9 °C 1000.6 hPa West 4.8 km/h 19.3 km/h 63% 4.6 mm
16:35 9.6 °C 3.3 °C 1000.6 hPa West 3.2 km/h 19.3 km/h 65% 4.6 mm
16:40 9.6 °C 2.8 °C 1000.6 hPa WNW 8 km/h 20.9 km/h 63% 4.6 mm
16:45 9.6 °C 3.1 °C 1000.9 hPa West 6.4 km/h 20.9 km/h 64% 4.6 mm
16:49 9.6 °C 3.3 °C 1000.9 hPa West 9.7 km/h 17.7 km/h 65% 4.6 mm
16:55 9.4 °C 3.3 °C 1000.9 hPa West 4.8 km/h 17.7 km/h 66% 4.6 mm
16:59 9.2 °C 3.4 °C 1000.9 hPa West 6.4 km/h 14.5 km/h 67% 4.6 mm
17:04 9.1 °C 3.3 °C 1000.9 hPa West 9.7 km/h 14.5 km/h 67% 4.6 mm
17:10 9.1 °C 3.3 °C 1000.9 hPa WNW 11.3 km/h 17.7 km/h 67% 4.6 mm
17:15 9 °C 3.4 °C 1000.9 hPa West 8 km/h 17.7 km/h 68% 4.6 mm
17:19 8.9 °C 3.5 °C 1000.9 hPa WNW 6.4 km/h 17.7 km/h 69% 4.6 mm
17:24 8.8 °C 3.7 °C 1000.9 hPa West 4.8 km/h 14.5 km/h 70% 4.6 mm
17:30 8.8 °C 3.3 °C 1000.9 hPa West 6.4 km/h 14.5 km/h 68% 4.6 mm
17:34 8.8 °C 3.9 °C 1000.9 hPa Calm   14.5 km/h 71% 4.6 mm
17:39 8.8 °C 3.4 °C 1000.9 hPa West 1.6 km/h 8 km/h 69% 4.6 mm
17:45 8.8 °C 3.4 °C 1000.9 hPa Calm   8 km/h 69% 4.6 mm
17:50 8.8 °C 3.8 °C 1001.2 hPa Calm   1.6 km/h 71% 4.6 mm
17:54 8.7 °C 3.5 °C 1001.2 hPa West 1.6 km/h 8 km/h 70% 4.6 mm
18:00 8.7 °C 3.5 °C 1001.2 hPa WSW 1.6 km/h 9.7 km/h 70% 4.6 mm
18:10 8.8 °C 3.4 °C 1001.2 hPa West 1.6 km/h 14.5 km/h 69% 4.6 mm
18:15 8.8 °C 3.6 °C 1001.6 hPa WSW 3.2 km/h 9.7 km/h 70% 4.6 mm
18:20 8.7 °C 3.8 °C 1001.6 hPa West 3.2 km/h 14.5 km/h 71% 4.6 mm
18:25 8.6 °C 3.8 °C 1001.6 hPa WNW 4.8 km/h 14.5 km/h 72% 4.6 mm
18:30 8.4 °C 4.1 °C 1001.6 hPa WNW 8 km/h 14.5 km/h 74% 4.6 mm
18:35 8.4 °C 4.2 °C 1001.9 hPa WSW 3.2 km/h 14.5 km/h 75% 4.6 mm
18:40 8.3 °C 4.3 °C 1002.3 hPa West 1.6 km/h 14.5 km/h 76% 4.6 mm
18:45 8.2 °C 4.2 °C 1002.3 hPa WSW 3.2 km/h 16.1 km/h 76% 4.6 mm
18:50 8.1 °C 4.4 °C 1002.3 hPa SSW 1.6 km/h 16.1 km/h 78% 4.6 mm
18:55 7.9 °C 4.5 °C 1002.3 hPa SW 1.6 km/h 12.9 km/h 79% 4.8 mm
19:00 7.8 °C 4.6 °C 1002.3 hPa SW 1.6 km/h 12.9 km/h 80% 4.8 mm
19:05 7.7 °C 4.6 °C 1002.6 hPa Calm   9.7 km/h 81% 4.8 mm
19:10 7.6 °C 4.7 °C 1002.6 hPa Calm   9.7 km/h 82% 4.8 mm
19:15 7.5 °C 4.8 °C 1002.6 hPa Calm   4.8 km/h 83% 4.8 mm
19:20 7.4 °C 4.7 °C 1002.6 hPa Calm   1.6 km/h 83% 5.1 mm
19:25 7.3 °C 4.8 °C 1002.9 hPa Calm   1.6 km/h 84% 5.1 mm
19:30 7.2 °C 4.9 °C 1002.9 hPa Calm   6.4 km/h 85% 5.1 mm
19:35 7.2 °C 4.9 °C 1002.9 hPa Calm   6.4 km/h 85% 5.1 mm
19:40 7.2 °C 5.1 °C 1002.9 hPa Calm   4.8 km/h 86% 5.1 mm
19:45 7.2 °C 5 °C 1002.9 hPa West 1.6 km/h 4.8 km/h 86% 5.1 mm
19:50 7.2 °C 5 °C 1002.9 hPa West 1.6 km/h 6.4 km/h 86% 5.1 mm
19:55 7.2 °C 5 °C 1002.9 hPa Calm   6.4 km/h 86% 5.1 mm
20:00 7.2 °C 5.2 °C 1002.9 hPa WSW 1.6 km/h 8 km/h 87% 5.1 mm
20:05 7.1 °C 5.1 °C 1002.9 hPa Calm   8 km/h 87% 5.1 mm
20:10 7.2 °C 5.2 °C 1002.9 hPa Calm   8 km/h 87% 5.1 mm
20:15 7.2 °C 5.2 °C 1002.9 hPa Calm   6.4 km/h 87% 5.1 mm
20:20 7.2 °C 5.2 °C 1002.9 hPa Calm   6.4 km/h 87% 5.1 mm
20:25 7.2 °C 5.2 °C 1002.9 hPa SW 1.6 km/h 4.8 km/h 87% 5.1 mm
20:30 7.2 °C 5.3 °C 1003.3 hPa Calm   4.8 km/h 88% 5.1 mm
20:35 7.2 °C 5.3 °C 1003.3 hPa Calm   4.8 km/h 88% 5.1 mm
20:40 7.2 °C 5.3 °C 1003.3 hPa Calm   4.8 km/h 88% 5.1 mm
20:50 7.2 °C 5.3 °C 1002.9 hPa Calm   4.8 km/h 88% 5.3 mm
20:55 7.2 °C 5.3 °C 1003.3 hPa SW 1.6 km/h 6.4 km/h 88% 5.3 mm
21:00 7.1 °C 5.3 °C 1003.3 hPa SW 3.2 km/h 11.3 km/h 88% 5.3 mm
21:05 7.1 °C 5.4 °C 1003.3 hPa SW 4.8 km/h 11.3 km/h 89% 5.3 mm
21:10 7.1 °C 5.4 °C 1003.3 hPa SW 4.8 km/h 14.5 km/h 89% 5.3 mm
21:15 7.2 °C 5.5 °C 1003.3 hPa Calm   14.5 km/h 89% 5.3 mm
21:20 7.2 °C 5.5 °C 1003.6 hPa SSW 1.6 km/h 8 km/h 89% 5.3 mm
21:25 7.2 °C 5.5 °C 1003.3 hPa Calm   9.7 km/h 89% 5.3 mm
21:30 7.2 °C 5.7 °C 1003.3 hPa WSW 4.8 km/h 9.7 km/h 90% 5.3 mm
21:35 7.2 °C 5.7 °C 1003.3 hPa SW 6.4 km/h 11.3 km/h 90% 5.3 mm
21:40 7.2 °C 5.7 °C 1003.3 hPa SSW 6.4 km/h 11.3 km/h 90% 5.3 mm
21:45 7.2 °C 5.7 °C 1003.3 hPa SSW 4.8 km/h 11.3 km/h 90% 5.3 mm
21:50 7.3 °C 5.7 °C 1003.3 hPa SSW 6.4 km/h 14.5 km/h 90% 5.6 mm
21:55 7.3 °C 5.8 °C 1003.3 hPa SSW 1.6 km/h 14.5 km/h 90% 5.6 mm
22:00 7.3 °C 5.8 °C 1002.9 hPa SSW 3.2 km/h 12.9 km/h 90% 5.6 mm
22:05 7.3 °C 5.9 °C 1002.9 hPa SSW 6.4 km/h 11.3 km/h 91% 5.6 mm
22:10 7.3 °C 5.9 °C 1002.9 hPa SSW 4.8 km/h 14.5 km/h 91% 5.6 mm
22:15 7.3 °C 5.9 °C 1002.9 hPa SW 4.8 km/h 14.5 km/h 91% 5.6 mm
22:20 7.3 °C 5.9 °C 1002.9 hPa SSW 8 km/h 12.9 km/h 91% 5.6 mm
22:25 7.3 °C 5.9 °C 1003.3 hPa SW 6.4 km/h 12.9 km/h 91% 5.6 mm
22:30 7.3 °C 5.9 °C 1002.9 hPa SSW 8 km/h 12.9 km/h 91% 5.6 mm
22:35 7.3 °C 5.9 °C 1003.3 hPa SSW 3.2 km/h 12.9 km/h 91% 5.6 mm
22:40 7.3 °C 6.1 °C 1003.3 hPa SSW 8 km/h 16.1 km/h 92% 5.6 mm
22:45 7.3 °C 6.1 °C 1003.3 hPa SSW 4.8 km/h 16.1 km/h 92% 5.6 mm
22:50 7.3 °C 6.1 °C 1003.3 hPa SSW 6.4 km/h 12.9 km/h 92% 5.6 mm
22:55 7.3 °C 6.1 °C 1003.3 hPa SW 4.8 km/h 12.9 km/h 92% 5.6 mm
23:00 7.2 °C 6 °C 1003.3 hPa SSW 6.4 km/h 11.3 km/h 92% 5.6 mm
23:05 7.2 °C 6 °C 1003.3 hPa SSW 6.4 km/h 11.3 km/h 92% 5.6 mm
23:10 7.2 °C 6 °C 1003.3 hPa Calm   9.7 km/h 92% 5.6 mm
23:15 7.2 °C 5.8 °C 1003.3 hPa SW 6.4 km/h 12.9 km/h 91% 5.6 mm
23:20 7.2 °C 5.8 °C 1003.3 hPa SSW 3.2 km/h 12.9 km/h 91% 5.6 mm
23:25 7.2 °C 5.8 °C 1003.3 hPa SSW 4.8 km/h 11.3 km/h 91% 5.8 mm
23:30 7.2 °C 5.8 °C 1003.3 hPa SW 4.8 km/h 11.3 km/h 91% 5.8 mm
23:35 7.2 °C 5.8 °C 1003.3 hPa SSW 3.2 km/h 9.7 km/h 91% 5.8 mm
23:40 7.2 °C 5.8 °C 1003.3 hPa SW 3.2 km/h 9.7 km/h 91% 5.8 mm
23:45 7.2 °C 5.8 °C 1003.6 hPa WSW 3.2 km/h 12.9 km/h 91% 5.8 mm
23:50 7.2 °C 5.8 °C 1003.3 hPa SSW 1.6 km/h 12.9 km/h 91% 5.8 mm
23:55 7.2 °C 5.8 °C 1003.3 hPa SSW 3.2 km/h 11.3 km/h 91% 5.8 mm
Westford Weather
Compliments of Weather Underground

 
 
Current Radar Loop:

Copyright © WestfordWeather.net 2007-2014. All rights reserved.